Time;durP1;ratioP1;P1;durP2;ratioP2;P2;SDS_P1;SDS_P2;PMS_P1;PMS_P2;Temp;Humidity;BMP_temperature;BMP_pressure;BME280_temperature;BME280_humidity;BME280_pressure;Samples;Min_cycle;Max_cycle;Signal;HPM_P1;HPM_P2
2022/08/14 00:00:25;;;;;;;5.03;4.63;;;22.40;99.90;;;;;;5052340;28;20299;-72
2022/08/14 00:02:51;;;;;;;5.70;5.10;;;22.40;99.90;;;;;;5052323;28;20240;-72
2022/08/14 00:05:19;;;;;;;5.80;5.30;;;22.40;99.90;;;;;;5034012;28;20695;-72
2022/08/14 00:07:46;;;;;;;5.70;5.20;;;22.40;99.90;;;;;;5057768;28;20418;-72
2022/08/14 00:10:17;;;;;;;5.87;5.37;;;22.40;99.90;;;;;;5069534;28;20454;-71
2022/08/14 00:12:46;;;;;;;5.53;5.13;;;22.30;99.90;;;;;;5064047;28;20490;-72
2022/08/14 00:15:19;;;;;;;6.60;6.10;;;22.30;99.90;;;;;;5053035;28;20501;-72
2022/08/14 00:17:46;;;;;;;6.30;5.80;;;22.30;99.90;;;;;;5052584;28;20404;-71
2022/08/14 00:20:12;;;;;;;7.10;5.33;;;22.30;99.90;;;;;;5051679;28;21191;-71
2022/08/14 00:22:38;;;;;;;5.83;5.33;;;22.30;99.90;;;;;;5052086;28;20547;-71
2022/08/14 00:25:06;;;;;;;6.33;5.60;;;22.30;99.90;;;;;;5051953;28;20254;-71
2022/08/14 00:27:31;;;;;;;6.00;5.40;;;22.30;99.90;;;;;;5052348;28;20168;-72
2022/08/14 00:29:57;;;;;;;5.23;4.70;;;22.30;99.90;;;;;;5051961;28;20944;-72
2022/08/14 00:32:22;;;;;;;6.23;5.73;;;22.20;99.90;;;;;;5052133;28;20180;-71
2022/08/14 00:34:48;;;;;;;9.30;5.10;;;22.20;99.90;;;;;;5054704;28;20178;-72
2022/08/14 00:37:14;;;;;;;4.40;4.10;;;22.20;99.90;;;;;;5042376;28;20186;-71
2022/08/14 00:39:40;;;;;;;6.07;5.57;;;22.20;99.90;;;;;;5055746;28;20687;-72
2022/08/14 00:42:06;;;;;;;5.57;5.07;;;22.10;99.90;;;;;;5055489;28;20420;-71
2022/08/14 00:44:31;;;;;;;6.50;4.87;;;22.10;99.90;;;;;;5055007;28;20221;-71
2022/08/14 00:46:58;;;;;;;5.27;4.77;;;22.10;99.90;;;;;;5055357;28;20173;-71
2022/08/14 00:49:24;;;;;;;5.00;4.60;;;22.00;99.90;;;;;;5054942;28;20279;-73
2022/08/14 00:51:50;;;;;;;5.93;5.43;;;22.10;99.90;;;;;;5055305;28;20406;-72
2022/08/14 00:54:17;;;;;;;6.20;5.70;;;22.00;99.90;;;;;;5055124;28;20504;-72
2022/08/14 00:56:44;;;;;;;6.30;5.80;;;22.00;99.90;;;;;;5054823;28;20230;-72
2022/08/14 00:59:10;;;;;;;6.60;5.00;;;22.00;99.90;;;;;;5055103;28;20540;-71
2022/08/14 01:01:37;;;;;;;5.20;4.80;;;22.00;99.90;;;;;;5055036;28;20433;-72
2022/08/14 01:04:03;;;;;;;5.57;5.10;;;22.00;99.90;;;;;;5055011;28;21039;-72
2022/08/14 01:06:32;;;;;;;5.30;4.90;;;22.00;99.90;;;;;;5054777;28;20407;-72
2022/08/14 01:09:01;;;;;;;5.80;5.30;;;22.00;99.90;;;;;;5054965;28;20190;-72
2022/08/14 01:11:27;;;;;;;5.90;5.30;;;22.00;99.90;;;;;;5054921;28;20429;-71
2022/08/14 01:14:00;;;;;;;5.80;4.80;;;22.00;99.90;;;;;;5054849;28;20423;-71
2022/08/14 01:16:26;;;;;;;5.33;4.93;;;21.90;99.90;;;;;;5054386;28;20400;-72
2022/08/14 01:21:39;;;;;;;5.00;4.60;;;21.90;99.90;;;;;;5054559;28;20454;-72
2022/08/14 01:24:06;;;;;;;5.90;5.40;;;21.90;99.90;;;;;;5054611;28;20458;-72
2022/08/14 01:26:34;;;;;;;7.17;4.87;;;22.00;99.90;;;;;;5052012;28;20525;-71
2022/08/14 01:29:01;;;;;;;5.20;4.80;;;22.00;99.90;;;;;;5054607;28;20761;-72
2022/08/14 01:31:31;;;;;;;5.33;4.90;;;22.00;99.90;;;;;;5054505;28;20404;-72
2022/08/14 01:34:00;;;;;;;5.70;5.13;;;22.00;99.90;;;;;;5054348;28;20406;-72
2022/08/14 01:36:33;;;;;;;5.53;5.03;;;22.10;99.90;;;;;;5053835;28;20400;-72
2022/08/14 01:38:58;;;;;;;5.53;5.00;;;22.00;99.90;;;;;;5054454;28;20427;-72
2022/08/14 01:41:26;;;;;;;5.97;5.47;;;22.00;99.90;;;;;;5036894;28;20425;-72
2022/08/14 01:44:00;;;;;;;6.20;5.70;;;22.00;99.90;;;;;;5054605;28;20199;-73
2022/08/14 01:46:33;;;;;;;7.53;6.70;;;22.10;99.90;;;;;;5054235;28;20403;-72
2022/08/14 01:48:59;;;;;;;9.53;6.80;;;22.10;99.90;;;;;;5053875;28;20511;-71
2022/08/14 01:51:27;;;;;;;7.10;6.50;;;22.10;99.90;;;;;;5054129;28;20411;-72
2022/08/14 01:53:55;;;;;;;5.87;5.37;;;22.10;99.90;;;;;;5054338;28;20442;-72
2022/08/14 01:56:34;;;;;;;5.83;5.03;;;22.10;99.90;;;;;;5053634;28;20474;-73
2022/08/14 01:59:00;;;;;;;5.67;5.17;;;22.00;99.90;;;;;;5054124;28;20457;-73
2022/08/14 02:01:25;;;;;;;6.40;5.80;;;22.00;99.90;;;;;;5054085;28;20453;-72
2022/08/14 02:03:51;;;;;;;5.53;5.03;;;22.00;99.90;;;;;;5054154;28;20200;-72
2022/08/14 02:06:17;;;;;;;5.87;5.37;;;22.00;99.90;;;;;;5053509;28;20405;-72
2022/08/14 02:08:43;;;;;;;6.63;5.43;;;22.00;99.90;;;;;;5054236;28;20181;-73
2022/08/14 02:11:21;;;;;;;6.23;5.60;;;22.00;99.90;;;;;;5054006;28;20229;-72
2022/08/14 02:13:52;;;;;;;5.80;5.40;;;22.10;99.90;;;;;;5054066;28;20493;-72
2022/08/14 02:16:22;;;;;;;6.30;5.70;;;22.00;99.90;;;;;;5053874;28;20402;-73
2022/08/14 02:18:48;;;;;;;5.83;4.80;;;22.10;99.90;;;;;;5053993;28;20456;-72
2022/08/14 02:21:17;;;;;;;5.03;4.53;;;22.10;99.90;;;;;;5057326;28;20418;-71
2022/08/14 02:23:45;;;;;;;6.70;6.10;;;22.10;99.90;;;;;;5058709;28;20187;-73
2022/08/14 02:26:17;;;;;;;6.00;5.50;;;22.10;99.90;;;;;;5054649;28;20407;-73
2022/08/14 02:28:44;;;;;;;6.30;5.80;;;22.10;99.90;;;;;;5053563;28;20483;-72
2022/08/14 02:31:11;;;;;;;6.77;6.10;;;22.10;99.90;;;;;;5054145;28;20394;-72
2022/08/14 02:33:36;;;;;;;8.17;5.47;;;22.10;99.90;;;;;;5053820;28;20497;-73
2022/08/14 02:36:03;;;;;;;6.07;5.33;;;22.10;99.90;;;;;;5052988;28;20444;-73
2022/08/14 02:38:30;;;;;;;7.10;5.10;;;22.00;99.90;;;;;;5053581;28;20215;-73
2022/08/14 02:40:57;;;;;;;6.20;5.70;;;22.00;99.90;;;;;;5053904;28;20918;-72
2022/08/14 02:43:22;;;;;;;5.73;5.23;;;22.00;99.90;;;;;;5053418;28;20795;-72
2022/08/14 02:45:48;;;;;;;6.77;6.00;;;22.00;99.90;;;;;;5053656;28;20537;-73
2022/08/14 02:48:14;;;;;;;7.03;6.43;;;22.00;99.90;;;;;;5053485;28;20270;-72
2022/08/14 02:50:41;;;;;;;6.10;5.60;;;22.00;99.90;;;;;;5053692;28;20227;-73
2022/08/14 02:53:08;;;;;;;6.03;5.53;;;22.00;99.90;;;;;;5054035;28;20177;-73
2022/08/14 02:55:33;;;;;;;6.27;5.67;;;22.00;99.90;;;;;;5053467;28;20492;-72
2022/08/14 02:57:59;;;;;;;6.80;6.10;;;22.00;99.90;;;;;;5053591;28;20463;-73
2022/08/14 03:00:25;;;;;;;7.10;6.50;;;22.00;99.90;;;;;;5052356;28;20178;-71
2022/08/14 03:02:51;;;;;;;6.03;5.43;;;22.00;99.90;;;;;;5053060;28;20458;-72
2022/08/14 03:05:17;;;;;;;6.57;5.90;;;22.00;99.90;;;;;;5052698;28;20409;-72
2022/08/14 03:07:43;;;;;;;6.10;5.30;;;22.00;99.90;;;;;;5053202;28;20196;-72
2022/08/14 03:10:09;;;;;;;6.80;6.10;;;22.00;99.90;;;;;;5052713;28;20478;-72
2022/08/14 03:12:35;;;;;;;6.83;6.20;;;22.00;99.90;;;;;;5053048;28;20418;-72
2022/08/14 03:15:09;;;;;;;5.53;5.13;;;22.00;99.90;;;;;;5052848;28;20483;-73
2022/08/14 03:17:34;;;;;;;6.37;5.77;;;22.00;99.90;;;;;;5053602;28;20398;-73
2022/08/14 03:20:00;;;;;;;6.80;6.30;;;22.00;99.90;;;;;;5053649;28;20946;-72
2022/08/14 03:22:26;;;;;;;7.30;6.60;;;22.00;99.90;;;;;;5053253;28;20186;-73
2022/08/14 03:24:52;;;;;;;6.77;6.27;;;22.00;99.90;;;;;;5052634;28;20663;-73
2022/08/14 03:27:17;;;;;;;6.10;5.50;;;22.00;99.90;;;;;;5055160;28;20417;-72
2022/08/14 03:29:44;;;;;;;6.40;5.70;;;22.00;99.90;;;;;;5054742;28;20695;-73
2022/08/14 03:32:09;;;;;;;7.40;6.70;;;21.90;99.90;;;;;;5052521;28;20165;-72
2022/08/14 03:34:36;;;;;;;7.33;6.70;;;21.90;99.90;;;;;;5052156;28;20404;-72
2022/08/14 03:37:02;;;;;;;6.50;6.00;;;21.90;99.90;;;;;;5052374;28;20251;-72
2022/08/14 03:39:27;;;;;;;7.53;6.73;;;21.90;99.90;;;;;;5052355;28;20496;-72
2022/08/14 03:41:55;;;;;;;6.73;6.13;;;21.90;99.90;;;;;;5052507;28;20195;-72
2022/08/14 03:44:22;;;;;;;7.60;6.93;;;21.80;99.90;;;;;;5052016;28;20246;-72
2022/08/14 03:46:47;;;;;;;6.20;5.70;;;21.80;99.90;;;;;;5051964;28;20460;-72
2022/08/14 03:49:17;;;;;;;6.20;5.60;;;21.80;99.90;;;;;;5034236;28;20916;-71
2022/08/14 03:51:44;;;;;;;7.63;6.93;;;21.80;99.90;;;;;;5052030;28;20167;-72
2022/08/14 03:54:11;;;;;;;8.13;6.40;;;21.80;99.90;;;;;;5052335;28;20450;-72
2022/08/14 03:56:37;;;;;;;6.67;6.17;;;21.80;99.90;;;;;;5051898;28;20754;-72
2022/08/14 03:59:10;;;;;;;7.07;6.37;;;21.80;99.90;;;;;;5052214;28;20435;-72
2022/08/14 04:01:39;;;;;;;7.47;6.50;;;21.80;99.90;;;;;;5052238;28;20180;-72
2022/08/14 04:04:06;;;;;;;8.03;6.60;;;21.70;99.90;;;;;;5052180;28;20448;-72
2022/08/14 04:06:36;;;;;;;6.87;6.27;;;21.70;99.90;;;;;;5051933;28;20407;-72
2022/08/14 04:09:05;;;;;;;7.27;6.20;;;21.70;99.90;;;;;;5053346;28;20429;-71
2022/08/14 04:11:32;;;;;;;7.17;6.47;;;21.70;99.90;;;;;;5059902;28;20787;-73
2022/08/14 04:13:57;;;;;;;7.43;6.73;;;21.70;99.90;;;;;;5052291;28;20410;-72
2022/08/14 04:16:23;;;;;;;7.70;6.03;;;21.70;99.90;;;;;;5051400;28;20417;-72
2022/08/14 04:18:52;;;;;;;7.70;6.67;;;21.70;99.90;;;;;;5052100;28;20678;-73
2022/08/14 04:21:21;;;;;;;7.20;6.50;;;21.70;99.90;;;;;;5052335;28;20424;-72
2022/08/14 04:23:47;;;;;;;7.13;6.60;;;21.70;99.90;;;;;;5052156;28;20458;-73
2022/08/14 04:26:15;;;;;;;6.70;6.00;;;21.70;99.90;;;;;;5051844;28;20408;-72
2022/08/14 04:28:42;;;;;;;12.90;6.60;;;21.70;99.90;;;;;;5051851;28;20486;-72
2022/08/14 04:31:08;;;;;;;6.43;5.83;;;21.80;99.90;;;;;;5051663;28;20476;-73
2022/08/14 04:33:35;;;;;;;7.07;6.20;;;21.80;99.90;;;;;;5051794;28;20416;-73
2022/08/14 04:36:01;;;;;;;6.50;5.53;;;21.80;99.90;;;;;;5051553;28;20192;-73
2022/08/14 04:43:55;;;;;;;6.67;6.07;;;22.00;99.90;;;;;;5051462;28;20558;-72
2022/08/14 04:46:22;;;;;;;8.83;6.70;;;22.00;99.90;;;;;;5051246;28;20512;-74
2022/08/14 04:48:49;;;;;;;7.00;6.40;;;22.00;99.90;;;;;;5033517;28;20280;-71
2022/08/14 04:51:19;;;;;;;7.23;6.57;;;22.00;99.90;;;;;;5051457;28;20409;-72
2022/08/14 04:53:47;;;;;;;6.70;6.10;;;22.00;99.90;;;;;;5051627;28;20410;-72
2022/08/14 04:56:16;;;;;;;8.13;7.30;;;22.00;99.90;;;;;;5051331;28;20421;-72
2022/08/14 04:58:42;;;;;;;6.70;6.10;;;22.00;99.90;;;;;;5051187;28;20434;-73
2022/08/14 05:01:09;;;;;;;7.27;6.63;;;22.10;99.90;;;;;;5051326;28;20412;-72
2022/08/14 05:03:37;;;;;;;6.20;5.73;;;22.10;99.90;;;;;;5051025;28;20923;-72
2022/08/14 05:06:05;;;;;;;7.20;6.50;;;22.10;99.90;;;;;;5050899;28;20890;-72
2022/08/14 05:08:32;;;;;;;6.67;6.07;;;22.20;99.90;;;;;;5051053;28;20437;-73
2022/08/14 05:11:00;;;;;;;7.17;6.43;;;22.40;99.90;;;;;;5051351;28;20842;-73
2022/08/14 05:13:28;;;;;;;7.90;7.10;;;22.50;99.90;;;;;;5051238;28;20836;-73
2022/08/14 05:15:57;;;;;;;6.70;6.10;;;22.60;99.90;;;;;;5051738;28;20417;-73
2022/08/14 05:18:29;;;;;;;6.47;5.97;;;22.70;99.90;;;;;;5051917;28;20796;-72
2022/08/14 05:20:56;;;;;;;7.47;6.80;;;22.60;99.90;;;;;;5061478;22;20495;-70
2022/08/14 05:23:28;;;;;;;7.10;6.50;;;22.90;99.90;;;;;;5031874;28;20779;-70
2022/08/14 05:26:02;;;;;;;6.93;6.40;;;23.10;99.90;;;;;;5033787;28;20412;-70
2022/08/14 05:28:33;;;;;;;5.77;5.27;;;23.30;99.90;;;;;;5034731;28;20803;-70
2022/08/14 05:31:07;;;;;;;7.60;7.00;;;23.40;99.90;;;;;;5034293;28;20424;-70
2022/08/14 05:33:34;;;;;;;6.40;5.80;;;23.60;99.90;;;;;;5033954;28;20582;-70
2022/08/14 05:36:03;;;;;;;6.70;6.10;;;23.70;99.90;;;;;;5033901;28;20411;-70
2022/08/14 05:38:34;;;;;;;5.90;5.40;;;23.80;99.90;;;;;;5032874;28;20492;-71
2022/08/14 05:41:01;;;;;;;5.97;5.40;;;24.50;99.90;;;;;;5033283;28;20899;-71
2022/08/14 05:43:28;;;;;;;6.00;5.40;;;25.30;99.90;;;;;;5033581;28;20445;-70
2022/08/14 05:45:54;;;;;;;6.03;5.43;;;25.30;99.90;;;;;;5033512;28;20767;-70
2022/08/14 05:48:20;;;;;;;6.80;6.10;;;26.10;99.90;;;;;;5033953;28;20410;-70
2022/08/14 05:50:45;;;;;;;6.53;5.93;;;26.30;99.90;;;;;;5034155;28;20464;-71
2022/08/14 05:53:11;;;;;;;6.33;5.00;;;26.00;99.90;;;;;;5035134;28;20254;-70
2022/08/14 05:55:37;;;;;;;6.30;5.47;;;26.30;99.90;;;;;;5034223;28;20226;-71
2022/08/14 05:58:05;;;;;;;5.80;5.30;;;26.90;99.90;;;;;;5035621;28;20203;-69
2022/08/14 06:00:34;;;;;;;6.33;5.73;;;27.30;99.90;;;;;;5036321;28;20349;-71
2022/08/14 06:03:02;;;;;;;7.17;6.57;;;27.70;99.90;;;;;;5035656;28;20457;-70
2022/08/14 06:05:28;;;;;;;6.60;6.03;;;27.80;99.90;;;;;;5038489;28;20487;-70
2022/08/14 06:07:54;;;;;;;6.40;5.63;;;27.50;99.90;;;;;;5016559;28;20414;-70
2022/08/14 06:10:20;;;;;;;6.77;6.27;;;27.60;99.90;;;;;;5033784;28;20199;-70
2022/08/14 06:12:45;;;;;;;8.83;7.93;;;27.30;99.90;;;;;;5015809;28;20175;-70
2022/08/14 06:15:11;;;;;;;5.70;5.30;;;27.90;99.90;;;;;;5033647;28;20241;-71
2022/08/14 06:17:49;;;;;;;6.47;5.97;;;28.20;99.90;;;;;;5035229;28;20191;-70
2022/08/14 06:20:15;;;;;;;6.40;5.90;;;28.40;99.90;;;;;;5034051;28;20234;-71
2022/08/14 06:22:42;;;;;;;6.57;6.07;;;28.30;99.90;;;;;;5032124;28;20453;-71
2022/08/14 06:25:10;;;;;;;7.13;6.57;;;28.60;99.90;;;;;;5032062;28;20752;-71
2022/08/14 06:27:40;;;;;;;5.77;5.27;;;29.00;99.90;;;;;;5032470;28;20402;-70
2022/08/14 06:30:08;;;;;;;5.00;4.60;;;28.80;99.90;;;;;;5032130;28;20426;-71
2022/08/14 06:32:34;;;;;;;5.90;5.50;;;28.80;99.90;;;;;;5032396;28;20953;-71
2022/08/14 06:35:00;;;;;;;7.03;6.43;;;28.80;99.90;;;;;;5031942;28;20513;-69
2022/08/14 06:37:26;;;;;;;6.07;5.57;;;29.50;99.90;;;;;;5032519;28;20406;-70
2022/08/14 06:39:52;;;;;;;6.00;5.50;;;30.20;99.90;;;;;;5032758;28;20434;-70
2022/08/14 06:42:18;;;;;;;5.20;4.80;;;30.30;99.90;;;;;;5033292;28;20194;-71
2022/08/14 06:44:43;;;;;;;5.43;4.93;;;30.80;99.90;;;;;;5032675;28;20557;-70
2022/08/14 06:47:09;;;;;;;6.47;5.83;;;30.70;99.90;;;;;;5032731;28;20247;-70
2022/08/14 06:49:36;;;;;;;6.30;5.70;;;30.40;99.90;;;;;;5033181;28;20282;-70
2022/08/14 06:52:03;;;;;;;5.77;5.27;;;30.20;99.90;;;;;;5032703;28;20947;-70
2022/08/14 06:54:30;;;;;;;5.00;4.60;;;30.70;99.90;;;;;;5032327;28;20850;-70
2022/08/14 06:56:56;;;;;;;5.37;4.97;;;30.60;99.70;;;;;;5035023;28;20406;-71
2022/08/14 06:59:21;;;;;;;7.17;5.30;;;30.40;99.20;;;;;;5032009;28;20425;-71
2022/08/14 07:07:15;;;;;;;5.47;4.97;;;29.80;99.90;;;;;;5032663;28;20735;-71
2022/08/14 07:09:41;;;;;;;5.80;5.40;;;30.60;99.90;;;;;;5032159;28;20438;-70
2022/08/14 07:12:07;;;;;;;5.70;5.20;;;30.70;99.10;;;;;;5032258;28;20618;-70
2022/08/14 07:14:33;;;;;;;5.40;5.00;;;30.40;98.80;;;;;;5032208;28;20174;-70
2022/08/14 07:16:59;;;;;;;6.63;5.37;;;30.60;99.20;;;;;;5032275;28;20406;-70
2022/08/14 07:19:24;;;;;;;5.00;4.60;;;30.10;99.30;;;;;;5031957;28;20171;-70
2022/08/14 07:21:50;;;;;;;5.00;4.60;;;29.90;99.90;;;;;;5032291;28;20716;-70
2022/08/14 07:24:16;;;;;;;5.30;4.50;;;30.30;99.40;;;;;;5032421;28;20183;-71
2022/08/14 07:26:41;;;;;;;5.27;4.97;;;29.90;99.40;;;;;;5033015;28;20194;-70
2022/08/14 07:29:07;;;;;;;4.90;4.50;;;30.20;98.50;;;;;;5032066;28;20172;-70
2022/08/14 07:31:33;;;;;;;5.40;4.87;;;30.30;98.50;;;;;;5031830;28;20183;-70
2022/08/14 07:33:58;;;;;;;5.47;5.07;;;31.50;97.00;;;;;;5032292;28;20182;-69
2022/08/14 07:36:24;;;;;;;6.43;5.83;;;30.80;97.20;;;;;;5033750;28;20174;-70
2022/08/14 07:38:50;;;;;;;5.67;5.27;;;29.70;99.00;;;;;;5032367;28;20630;-70
2022/08/14 07:41:15;;;;;;;6.10;5.43;;;30.20;98.90;;;;;;5032327;28;20195;-74
2022/08/14 07:43:43;;;;;;;5.73;5.10;;;30.20;98.50;;;;;;5033093;28;20529;-73
2022/08/14 07:46:08;;;;;;;5.70;5.17;;;30.50;97.60;;;;;;5031684;28;20160;-71
2022/08/14 07:48:42;;;;;;;5.47;5.07;;;31.00;96.80;;;;;;5032019;28;20425;-70
2022/08/14 07:51:08;;;;;;;5.03;4.63;;;31.70;95.40;;;;;;5031402;28;20179;-71
2022/08/14 07:53:34;;;;;;;5.30;4.90;;;31.80;94.20;;;;;;5032030;28;20784;-71
2022/08/14 07:56:00;;;;;;;5.90;5.40;;;32.60;93.20;;;;;;5032099;28;20434;-71
2022/08/14 07:58:25;;;;;;;5.60;5.20;;;33.20;91.60;;;;;;5033192;28;20329;-71
2022/08/14 08:00:55;;;;;;;6.77;4.83;;;32.90;92.00;;;;;;5030735;28;20518;-71
2022/08/14 08:03:22;;;;;;;5.03;4.63;;;32.40;92.40;;;;;;5010934;28;20310;-71
2022/08/14 08:05:48;;;;;;;4.97;4.57;;;32.80;91.80;;;;;;5010457;28;20422;-71
2022/08/14 08:08:16;;;;;;;4.80;4.40;;;31.60;93.30;;;;;;5010618;28;20427;-71
2022/08/14 08:10:43;;;;;;;5.63;4.80;;;30.90;94.60;;;;;;5010550;28;20772;-70
2022/08/14 08:13:20;;;;;;;5.30;4.80;;;31.80;93.40;;;;;;5011070;28;20411;-70
2022/08/14 08:15:52;;;;;;;4.80;4.50;;;31.70;93.30;;;;;;5027330;28;20414;-71
2022/08/14 08:18:19;;;;;;;5.40;5.00;;;32.40;91.90;;;;;;5030636;28;20437;-70
2022/08/14 08:20:46;;;;;;;4.83;4.40;;;31.40;93.00;;;;;;5012376;28;21054;-70
2022/08/14 08:23:14;;;;;;;4.90;4.53;;;32.40;92.80;;;;;;5030403;28;20959;-71
2022/08/14 08:25:44;;;;;;;4.50;4.20;;;33.20;90.20;;;;;;5030192;28;20414;-69
2022/08/14 08:28:19;;;;;;;4.90;4.60;;;33.10;90.00;;;;;;5030693;28;20497;-71
2022/08/14 08:30:57;;;;;;;4.67;4.37;;;33.30;89.30;;;;;;5030843;28;20429;-71
2022/08/14 08:33:26;;;;;;;5.20;4.80;;;32.40;90.90;;;;;;5030426;28;20433;-71
2022/08/14 08:35:53;;;;;;;4.60;4.20;;;32.70;90.00;;;;;;5030035;28;20434;-70
2022/08/14 08:38:24;;;;;;;4.80;4.50;;;32.60;90.20;;;;;;5030065;28;20402;-71
2022/08/14 08:40:52;;;;;;;5.63;5.23;;;32.50;90.00;;;;;;5030098;28;20425;-70
2022/08/14 08:43:34;;;;;;;5.30;4.90;;;32.40;89.90;;;;;;5030086;28;20477;-71
2022/08/14 08:46:08;;;;;;;5.13;4.70;;;33.10;88.30;;;;;;5030715;28;20398;-70
2022/08/14 08:48:52;;;;;;;4.87;4.47;;;33.10;88.00;;;;;;5030503;28;20413;-71
2022/08/14 08:51:32;;;;;;;4.60;4.07;;;33.10;87.00;;;;;;5029880;28;20414;-72
2022/08/14 08:54:02;;;;;;;6.47;4.43;;;32.30;89.20;;;;;;5030957;28;20406;-71
2022/08/14 08:56:44;;;;;;;5.17;4.60;;;32.70;88.90;;;;;;5029903;28;20418;-70
2022/08/14 08:59:22;;;;;;;4.93;4.57;;;33.50;86.10;;;;;;5031089;28;20449;-70
2022/08/14 09:01:56;;;;;;;4.87;4.40;;;33.40;85.10;;;;;;5033558;28;20517;-70
2022/08/14 09:04:23;;;;;;;4.40;4.10;;;33.20;84.20;;;;;;5036100;28;20456;-70
2022/08/14 09:06:49;;;;;;;4.53;4.17;;;32.90;85.00;;;;;;5047310;28;20823;-70
2022/08/14 09:09:29;;;;;;;4.60;4.20;;;32.60;85.60;;;;;;5033686;28;20413;-70
2022/08/14 09:11:56;;;;;;;5.20;4.70;;;32.90;85.60;;;;;;5033491;28;20409;-71
2022/08/14 09:14:25;;;;;;;4.33;4.10;;;32.40;85.50;;;;;;5033691;28;20498;-70
2022/08/14 09:16:51;;;;;;;4.70;4.30;;;32.30;86.40;;;;;;5043157;28;20424;-69
2022/08/14 09:19:17;;;;;;;5.33;4.13;;;32.20;85.80;;;;;;5053468;28;20405;-71
2022/08/14 09:21:45;;;;;;;8.13;4.70;;;31.60;87.60;;;;;;5053132;28;20684;-71
2022/08/14 09:24:11;;;;;;;5.20;4.80;;;31.60;88.20;;;;;;5029358;28;20562;-71
2022/08/14 09:26:37;;;;;;;5.07;4.67;;;31.50;89.00;;;;;;5033481;28;20853;-71
2022/08/14 09:29:04;;;;;;;4.07;3.77;;;32.00;88.30;;;;;;5033694;28;20426;-73
2022/08/14 09:31:32;;;;;;;3.83;3.63;;;32.00;87.70;;;;;;5033206;28;20521;-72
2022/08/14 09:34:17;;;;;;;5.00;4.70;;;32.20;86.60;;;;;;5032902;28;20430;-71
2022/08/14 09:36:48;;;;;;;5.20;4.70;;;32.10;85.70;;;;;;5048259;28;20422;-71
2022/08/14 09:39:30;;;;;;;5.20;4.13;;;32.40;84.80;;;;;;5053014;28;20493;-71
2022/08/14 09:42:41;;;;;;;4.17;3.87;;;32.10;85.30;;;;;;5052843;28;20401;-70
2022/08/14 09:45:43;;;;;;;4.07;3.83;;;32.10;85.90;;;;;;5032324;28;20517;-70
2022/08/14 09:48:20;;;;;;;4.63;4.23;;;31.70;86.00;;;;;;5008592;28;20472;-71
2022/08/14 09:50:51;;;;;;;5.97;5.47;;;32.10;86.30;;;;;;5013275;28;20913;-70
2022/08/14 09:53:37;;;;;;;3.93;3.63;;;32.80;84.20;;;;;;5013480;28;20414;-70
2022/08/14 09:56:04;;;;;;;4.37;3.97;;;32.70;82.90;;;;;;5012862;28;20414;-70
2022/08/14 09:58:44;;;;;;;4.30;4.00;;;32.20;81.50;;;;;;5016983;28;20433;-70
2022/08/14 10:01:18;;;;;;;3.20;3.00;;;31.20;84.40;;;;;;5032546;28;20422;-70
2022/08/14 10:03:51;;;;;;;3.60;3.30;;;31.80;82.60;;;;;;5032436;28;20571;-70
2022/08/14 10:06:19;;;;;;;4.70;3.53;;;31.70;82.20;;;;;;5034456;28;21146;-70
2022/08/14 10:08:53;;;;;;;5.00;3.70;;;31.50;83.50;;;;;;5033184;28;20406;-70
2022/08/14 10:11:24;;;;;;;3.80;3.40;;;31.20;84.00;;;;;;5032449;28;20422;-70
2022/08/14 10:13:52;;;;;;;3.00;2.80;;;31.20;84.20;;;;;;5032438;28;20418;-70
2022/08/14 10:16:20;;;;;;;12.90;5.10;;;31.40;81.90;;;;;;5032301;28;20433;-70
2022/08/14 10:18:50;;;;;;;3.13;2.93;;;31.50;82.30;;;;;;5032419;28;20784;-70
2022/08/14 10:21:17;;;;;;;4.10;3.70;;;31.00;82.60;;;;;;5031877;28;20456;-69
2022/08/14 10:23:48;;;;;;;3.67;3.40;;;30.90;82.60;;;;;;5032177;28;20803;-70
2022/08/14 10:26:17;;;;;;;3.90;3.40;;;31.20;83.10;;;;;;5031914;28;20410;-69
2022/08/14 10:28:47;;;;;;;4.07;3.67;;;31.30;82.10;;;;;;5032182;28;20434;-70
2022/08/14 10:31:24;;;;;;;4.13;3.73;;;31.30;81.90;;;;;;5032142;28;20422;-70
2022/08/14 10:34:07;;;;;;;3.80;3.50;;;31.40;80.20;;;;;;5032272;28;20915;-70
2022/08/14 10:36:36;;;;;;;3.43;2.90;;;30.90;80.60;;;;;;5032413;28;20481;-71
2022/08/14 10:39:14;;;;;;;4.93;3.30;;;30.90;79.70;;;;;;5035056;28;20438;-71
2022/08/14 10:41:42;;;;;;;3.53;3.33;;;31.00;79.10;;;;;;5032110;28;20460;-71
2022/08/14 10:44:13;;;;;;;11.43;3.83;;;31.00;78.60;;;;;;5014323;28;20976;-70
2022/08/14 10:46:57;;;;;;;6.83;3.20;;;30.80;78.60;;;;;;5031258;28;21141;-70
2022/08/14 10:49:25;;;;;;;3.77;3.47;;;30.60;80.10;;;;;;5031661;28;20892;-70
2022/08/14 10:52:05;;;;;;;4.70;4.30;;;30.90;79.20;;;;;;5031601;28;20418;-70
2022/08/14 10:54:33;;;;;;;4.33;4.07;;;31.00;78.30;;;;;;5031512;28;20410;-70
2022/08/14 10:57:20;;;;;;;3.73;3.43;;;31.20;78.50;;;;;;5031523;28;20406;-71
2022/08/14 10:59:48;;;;;;;3.60;3.40;;;31.10;79.40;;;;;;5031305;28;20406;-71
2022/08/14 11:02:32;;;;;;;3.70;3.40;;;30.90;79.50;;;;;;5031288;28;20458;-70
2022/08/14 11:05:10;;;;;;;3.57;3.27;;;30.80;79.90;;;;;;5031155;28;20402;-70
2022/08/14 11:07:38;;;;;;;4.07;3.67;;;30.80;78.70;;;;;;5044569;28;20868;-69
2022/08/14 11:10:10;;;;;;;4.00;3.50;;;30.50;78.80;;;;;;5051433;28;20742;-71
2022/08/14 11:12:48;;;;;;;4.53;4.13;;;30.80;79.30;;;;;;5051597;28;20405;-70
2022/08/14 11:15:22;;;;;;;6.20;4.20;;;30.80;77.80;;;;;;5051222;28;20476;-71
2022/08/14 11:17:49;;;;;;;3.80;3.50;;;30.50;78.20;;;;;;5051204;28;21143;-72
2022/08/14 11:20:17;;;;;;;3.40;3.20;;;30.50;78.50;;;;;;5050403;28;20542;-69
2022/08/14 11:22:44;;;;;;;4.50;4.10;;;30.40;79.50;;;;;;5058322;22;21027;-72
2022/08/14 11:25:12;;;;;;;6.27;3.33;;;30.50;79.90;;;;;;5047359;28;20417;-72
2022/08/14 11:27:42;;;;;;;4.57;3.93;;;30.80;80.00;;;;;;5061705;28;20416;-72
2022/08/14 11:30:19;;;;;;;4.20;3.60;;;30.80;80.00;;;;;;5061194;28;20397;-72
2022/08/14 11:32:49;;;;;;;3.97;3.67;;;30.70;80.80;;;;;;5062885;28;20425;-72
2022/08/14 11:35:23;;;;;;;3.90;3.60;;;30.60;80.20;;;;;;5044557;28;20930;-73
2022/08/14 11:38:00;;;;;;;3.70;3.40;;;30.60;80.00;;;;;;5063837;28;20401;-72
2022/08/14 11:40:29;;;;;;;4.13;3.70;;;30.70;79.40;;;;;;5047213;28;20409;-72
2022/08/14 11:42:56;;;;;;;4.63;3.80;;;30.80;78.40;;;;;;5054683;28;20461;-72
2022/08/14 11:45:27;;;;;;;7.50;3.60;;;31.00;77.70;;;;;;5052308;28;20776;-74
2022/08/14 11:47:55;;;;;;;4.17;3.87;;;30.80;76.90;;;;;;5052579;28;20541;-73
2022/08/14 11:50:24;;;;;;;3.43;3.13;;;30.70;75.10;;;;;;5052348;28;20416;-72
2022/08/14 11:52:54;;;;;;;4.07;3.40;;;30.50;73.20;;;;;;5052382;28;20437;-72
2022/08/14 11:55:20;;;;;;;4.87;3.47;;;30.80;74.10;;;;;;5052221;28;20401;-72
2022/08/14 11:57:46;;;;;;;4.20;3.47;;;31.00;74.10;;;;;;5052485;28;20393;-73
2022/08/14 12:00:16;;;;;;;4.73;4.43;;;31.20;72.60;;;;;;5051940;28;20467;-73
2022/08/14 12:02:54;;;;;;;4.33;3.47;;;30.80;73.50;;;;;;5034248;28;20619;-72
2022/08/14 12:05:32;;;;;;;3.80;3.50;;;30.80;75.80;;;;;;5052057;28;20415;-73
2022/08/14 12:07:59;;;;;;;3.83;3.53;;;30.70;76.10;;;;;;5054369;28;20954;-72
2022/08/14 12:10:25;;;;;;;6.17;4.33;;;30.80;71.80;;;;;;5052379;28;20436;-72
2022/08/14 12:12:55;;;;;;;5.40;4.10;;;30.70;72.60;;;;;;5051871;28;20808;-72
2022/08/14 12:15:32;;;;;;;7.13;4.23;;;30.90;73.00;;;;;;5051647;28;20398;-72
2022/08/14 12:17:59;;;;;;;4.50;4.20;;;31.00;73.00;;;;;;5051963;28;20401;-72
2022/08/14 12:20:35;;;;;;;4.20;3.90;;;31.00;74.20;;;;;;5051784;28;20400;-72
2022/08/14 12:23:02;;;;;;;4.33;4.03;;;31.10;74.40;;;;;;5051622;28;20463;-72
2022/08/14 12:25:29;;;;;;;3.97;3.67;;;31.10;73.20;;;;;;5051507;28;20409;-73
2022/08/14 12:27:56;;;;;;;4.50;4.20;;;31.10;74.30;;;;;;5051953;28;20401;-73
2022/08/14 12:30:34;;;;;;;3.83;3.57;;;31.20;74.00;;;;;;5033769;28;20508;-74
2022/08/14 12:33:02;;;;;;;4.13;3.67;;;31.10;74.70;;;;;;5036807;28;20494;-74
2022/08/14 12:35:41;;;;;;;4.43;4.03;;;31.00;73.30;;;;;;5055621;28;20532;-72
2022/08/14 12:38:09;;;;;;;6.50;4.50;;;31.00;74.40;;;;;;5055861;28;20486;-73
2022/08/14 12:40:46;;;;;;;4.77;4.37;;;31.00;74.80;;;;;;5056334;28;20414;-74
2022/08/14 12:43:12;;;;;;;4.67;4.23;;;31.10;75.50;;;;;;5055900;28;20456;-73
2022/08/14 12:45:37;;;;;;;4.00;3.70;;;31.10;74.80;;;;;;5055744;28;20563;-73
2022/08/14 12:48:04;;;;;;;4.40;4.10;;;31.10;75.00;;;;;;5055927;28;20232;-73
2022/08/14 12:50:38;;;;;;;4.07;3.67;;;31.30;75.00;;;;;;5055701;28;20312;-73
2022/08/14 12:53:06;;;;;;;5.37;4.23;;;31.90;74.20;;;;;;5055838;28;20782;-73
2022/08/14 12:55:34;;;;;;;4.03;3.73;;;31.80;72.80;;;;;;5055501;28;20409;-73
2022/08/14 12:58:02;;;;;;;4.67;4.20;;;31.50;71.80;;;;;;5055628;28;20412;-73
2022/08/14 13:00:28;;;;;;;4.20;3.90;;;31.60;71.50;;;;;;5055653;28;20463;-73
2022/08/14 13:02:55;;;;;;;4.47;4.07;;;31.50;72.00;;;;;;5038147;28;20468;-73
2022/08/14 13:05:26;;;;;;;8.37;4.70;;;31.60;71.10;;;;;;5061551;28;20437;-74
2022/08/14 13:07:52;;;;;;;4.67;4.27;;;31.50;71.30;;;;;;5060430;28;20485;-74